createdAt,value
2018-03-11T00:02:14.646Z,71.52
2018-03-11T00:04:42.222Z,71.90
2018-03-11T00:07:09.936Z,72.04
2018-03-11T00:09:37.546Z,72.59
2018-03-11T00:12:05.138Z,72.77
2018-03-11T00:14:32.694Z,72.61
2018-03-11T00:17:00.276Z,73.01
2018-03-11T00:19:27.850Z,72.53
2018-03-11T00:21:55.466Z,72.36
2018-03-11T00:24:23.224Z,72.12
2018-03-11T00:26:50.940Z,72.54
2018-03-11T00:29:18.729Z,72.59
2018-03-11T00:31:46.294Z,72.76
2018-03-11T00:34:14.012Z,71.96
2018-03-11T00:36:41.622Z,71.90
2018-03-11T00:39:09.368Z,71.44
2018-03-11T00:41:36.929Z,71.95
2018-03-11T00:44:04.704Z,72.30
2018-03-11T00:46:32.366Z,72.69
2018-03-11T00:48:59.926Z,72.55
2018-03-11T00:51:27.662Z,72.45
2018-03-11T00:53:55.234Z,72.70
2018-03-11T00:56:22.994Z,72.13
2018-03-11T00:58:50.610Z,71.39
2018-03-11T01:01:18.185Z,70.79
2018-03-11T01:03:45.826Z,71.09
2018-03-11T01:06:13.782Z,71.39
2018-03-11T01:08:41.375Z,71.75
2018-03-11T01:11:09.006Z,72.04
2018-03-11T01:13:36.720Z,72.34
2018-03-11T01:16:04.331Z,72.49
2018-03-11T01:18:31.901Z,73.03
2018-03-11T01:20:59.481Z,73.24
2018-03-11T01:23:27.184Z,72.88
2018-03-11T01:25:54.743Z,72.76
2018-03-11T01:28:22.307Z,73.32
2018-03-11T01:30:50.017Z,73.16
2018-03-11T01:33:17.655Z,73.06
2018-03-11T01:35:45.267Z,73.26
2018-03-11T01:38:12.966Z,72.88
2018-03-11T01:40:40.610Z,73.71
2018-03-11T01:43:08.425Z,73.48
2018-03-11T01:45:35.989Z,73.20
2018-03-11T01:48:03.614Z,73.18
2018-03-11T01:50:31.390Z,73.21
2018-03-11T01:53:09.028Z,72.72
2018-03-11T01:55:36.615Z,72.65
2018-03-11T01:58:04.378Z,72.97
2018-03-11T02:00:31.975Z,72.88
2018-03-11T02:02:59.680Z,72.85
2018-03-11T02:05:27.532Z,72.94
2018-03-11T02:07:55.438Z,72.62
2018-03-11T02:10:23.153Z,72.74
2018-03-11T02:12:50.721Z,73.07
2018-03-11T02:15:18.506Z,73.83
2018-03-11T02:17:46.326Z,74.61
2018-03-11T02:20:13.890Z,74.73
2018-03-11T02:22:41.442Z,73.84
2018-03-11T02:25:09.152Z,73.34
2018-03-11T02:27:36.731Z,73.48
2018-03-11T02:30:04.615Z,73.19
2018-03-11T02:32:32.334Z,73.90
2018-03-11T02:34:59.930Z,73.86
2018-03-11T02:37:27.672Z,74.00
2018-03-11T02:39:55.249Z,74.00
2018-03-11T02:42:22.859Z,74.18
2018-03-11T02:44:50.584Z,74.06
2018-03-11T02:47:18.156Z,74.32
2018-03-11T02:49:45.964Z,74.43
2018-03-11T02:52:13.523Z,74.48
2018-03-11T02:54:41.142Z,74.43
2018-03-11T02:57:08.913Z,74.51
2018-03-11T02:59:36.522Z,74.45
2018-03-11T03:02:04.105Z,74.41
2018-03-11T03:04:31.657Z,74.55
2018-03-11T03:06:59.486Z,75.67
2018-03-11T03:09:27.082Z,75.94
2018-03-11T03:11:54.921Z,75.58
2018-03-11T03:14:22.742Z,75.26
2018-03-11T03:16:50.302Z,75.65
2018-03-11T03:19:17.924Z,75.17
2018-03-11T03:21:45.694Z,74.74
2018-03-11T03:24:13.412Z,74.42
2018-03-11T03:26:41.230Z,74.81
2018-03-11T03:29:08.791Z,74.99
2018-03-11T03:31:36.414Z,75.43
2018-03-11T03:34:04.077Z,75.52
2018-03-11T03:36:31.803Z,75.29
2018-03-11T03:38:59.371Z,75.21
2018-03-11T03:41:27.138Z,75.38
2018-03-11T03:43:54.957Z,75.31
2018-03-11T03:46:22.521Z,75.55
2018-03-11T03:48:50.078Z,75.34
2018-03-11T03:51:17.775Z,75.24
2018-03-11T03:53:45.335Z,75.09
2018-03-11T03:56:13.146Z,75.38
2018-03-11T03:58:40.741Z,75.45
2018-03-11T04:01:08.293Z,75.41
2018-03-11T04:03:35.862Z,75.73
2018-03-11T04:06:03.498Z,75.90
2018-03-11T04:08:31.222Z,76.10
2018-03-11T04:10:58.932Z,76.61
2018-03-11T04:13:26.563Z,76.83
2018-03-11T04:15:54.138Z,76.60
2018-03-11T04:18:21.908Z,76.14
2018-03-11T04:20:49.639Z,76.49
2018-03-11T04:23:17.197Z,76.49
2018-03-11T04:25:44.760Z,76.09
2018-03-11T04:28:12.365Z,75.52
2018-03-11T04:30:40.097Z,75.49
2018-03-11T04:33:07.727Z,75.67
2018-03-11T04:35:35.296Z,75.31
2018-03-11T04:38:02.875Z,75.20
2018-03-11T04:40:30.446Z,75.42
2018-03-11T04:42:58.001Z,76.04
2018-03-11T04:45:25.806Z,76.28
2018-03-11T04:47:53.361Z,76.75
2018-03-11T04:50:21.119Z,76.80
2018-03-11T04:52:48.691Z,76.89
2018-03-11T04:55:16.275Z,76.59
2018-03-11T04:57:43.901Z,76.84
2018-03-11T05:00:11.715Z,76.72
2018-03-11T05:02:39.278Z,76.92
2018-03-11T05:05:06.882Z,76.78
2018-03-11T05:07:34.666Z,76.62
2018-03-11T05:10:02.370Z,76.24
2018-03-11T05:12:29.989Z,76.87
2018-03-11T05:14:57.720Z,76.99
2018-03-11T05:17:25.282Z,77.00
2018-03-11T05:19:52.841Z,76.67
2018-03-11T05:22:20.476Z,76.78
2018-03-11T05:24:48.044Z,76.55
2018-03-11T05:27:15.603Z,75.99
2018-03-11T05:29:43.162Z,74.48
2018-03-11T05:32:10.945Z,72.79
2018-03-11T05:34:38.766Z,71.89
2018-03-11T05:37:06.583Z,67.48
2018-03-11T05:39:34.142Z,60.57
2018-03-11T05:42:01.918Z,54.28
2018-03-11T05:44:29.508Z,50.77
2018-03-11T05:46:57.126Z,47.12
2018-03-11T05:49:24.839Z,45.81
2018-03-11T05:51:52.555Z,43.65
2018-03-11T05:54:20.131Z,40.89
2018-03-11T05:56:47.695Z,38.61
2018-03-11T05:59:15.315Z,38.30
2018-03-11T06:01:42.874Z,37.73
2018-03-11T06:04:10.680Z,37.66
2018-03-11T06:06:38.245Z,39.02
2018-03-11T06:09:05.816Z,40.69
2018-03-11T06:11:33.446Z,42.23
2018-03-11T06:14:01.022Z,44.16
2018-03-11T06:16:28.581Z,45.31
2018-03-11T06:18:56.149Z,46.12
2018-03-11T06:21:23.714Z,47.30
2018-03-11T06:23:51.352Z,48.82
2018-03-11T06:26:19.140Z,50.21
2018-03-11T06:28:46.703Z,51.47
2018-03-11T06:31:14.476Z,51.63
2018-03-11T06:33:42.034Z,51.26
2018-03-11T06:36:09.913Z,50.25
2018-03-11T06:38:37.731Z,46.97
2018-03-11T06:41:05.298Z,44.21
2018-03-11T06:43:32.874Z,41.40
2018-03-11T06:46:00.429Z,37.92
2018-03-11T06:48:28.050Z,35.40
2018-03-11T06:50:55.606Z,33.84
2018-03-11T06:53:23.161Z,31.76
2018-03-11T06:55:50.734Z,30.27
2018-03-11T06:58:18.308Z,28.82
2018-03-11T07:00:45.940Z,27.53
2018-03-11T07:03:13.691Z,26.25
2018-03-11T07:05:41.427Z,25.25
2018-03-11T07:08:09.002Z,24.18
2018-03-11T07:10:36.763Z,24.14
2018-03-11T07:13:04.398Z,24.42
2018-03-11T07:15:31.970Z,24.05
2018-03-11T07:17:59.557Z,24.52
2018-03-11T07:20:27.179Z,24.76
2018-03-11T07:22:54.953Z,24.48
2018-03-11T07:25:22.510Z,22.95
2018-03-11T07:27:50.389Z,23.24
2018-03-11T07:30:18.270Z,23.97
2018-03-11T07:32:45.864Z,23.91
2018-03-11T07:35:13.474Z,24.26
2018-03-11T07:37:41.052Z,23.68
2018-03-11T07:40:08.602Z,22.90
2018-03-11T07:42:36.397Z,22.90
2018-03-11T07:45:04.217Z,22.90
2018-03-11T07:47:31.815Z,22.67
2018-03-11T07:49:59.654Z,21.51
2018-03-11T07:52:27.215Z,21.34
2018-03-11T07:54:54.777Z,21.31
2018-03-11T07:57:22.606Z,21.28
2018-03-11T07:59:50.323Z,21.20
2018-03-11T08:02:17.882Z,22.21
2018-03-11T08:04:45.519Z,23.87
2018-03-11T08:07:13.082Z,24.30
2018-03-11T08:09:40.796Z,24.06
2018-03-11T08:12:08.613Z,23.50
2018-03-11T08:14:36.220Z,22.56
2018-03-11T08:17:03.952Z,21.58
2018-03-11T08:19:31.561Z,20.74
2018-03-11T08:21:59.285Z,20.26
2018-03-11T08:24:26.837Z,19.76
2018-03-11T08:26:54.839Z,20.98
2018-03-11T08:29:22.384Z,19.73
2018-03-11T08:31:49.959Z,19.34
2018-03-11T08:34:17.590Z,18.12
2018-03-11T08:36:45.394Z,18.54
2018-03-11T08:39:12.969Z,18.90
2018-03-11T08:41:40.796Z,18.13
2018-03-11T08:44:08.347Z,17.23
2018-03-11T08:46:36.168Z,17.51
2018-03-11T08:49:03.795Z,17.11
2018-03-11T08:51:31.346Z,17.65
2018-03-11T08:53:58.910Z,17.40
2018-03-11T08:56:26.514Z,17.90
2018-03-11T08:58:54.069Z,16.96
2018-03-11T09:01:21.875Z,16.71
2018-03-11T09:03:49.486Z,18.16
2018-03-11T09:06:17.211Z,19.18
2018-03-11T09:08:44.762Z,20.09
2018-03-11T09:11:12.547Z,19.26
2018-03-11T09:13:40.115Z,19.81
2018-03-11T09:16:07.673Z,20.16
2018-03-11T09:18:35.292Z,19.27
2018-03-11T09:21:03.017Z,19.56
2018-03-11T09:23:30.573Z,20.34
2018-03-11T09:25:58.327Z,20.69
2018-03-11T09:28:25.882Z,20.19
2018-03-11T09:30:53.438Z,20.10
2018-03-11T09:33:21.308Z,20.19
2018-03-11T09:35:48.917Z,19.45
2018-03-11T09:38:16.472Z,19.78
2018-03-11T09:40:44.136Z,18.86
2018-03-11T09:43:11.846Z,18.69
2018-03-11T09:45:39.565Z,18.95
2018-03-11T09:48:07.198Z,19.70
2018-03-11T09:50:34.897Z,20.50
2018-03-11T09:53:02.454Z,20.68
2018-03-11T09:55:30.067Z,20.34
2018-03-11T09:57:57.625Z,21.95
2018-03-11T10:00:25.187Z,22.09
2018-03-11T10:02:52.789Z,22.58
2018-03-11T10:05:20.540Z,23.69
2018-03-11T10:07:48.151Z,22.11
2018-03-11T10:10:15.977Z,21.69
2018-03-11T10:12:43.535Z,22.97
2018-03-11T10:15:11.095Z,22.60
2018-03-11T10:17:38.930Z,22.34
2018-03-11T10:20:06.498Z,23.09
2018-03-11T10:22:34.272Z,22.76
2018-03-11T10:25:01.895Z,23.29
2018-03-11T10:27:29.445Z,22.26
2018-03-11T10:29:57.007Z,21.28
2018-03-11T10:32:24.630Z,21.58
2018-03-11T10:34:52.186Z,21.56
2018-03-11T10:37:19.777Z,20.91
2018-03-11T10:39:47.593Z,20.83
2018-03-11T10:42:15.306Z,20.96
2018-03-11T10:44:42.870Z,20.21
2018-03-11T10:47:10.627Z,19.98
2018-03-11T10:49:38.365Z,22.51
2018-03-11T10:52:05.930Z,21.41
2018-03-11T10:54:33.541Z,22.22
2018-03-11T10:57:01.279Z,21.05
2018-03-11T10:59:28.830Z,21.72
2018-03-11T11:02:02.006Z,22.15
2018-03-11T11:04:42.546Z,20.67
2018-03-11T11:07:10.154Z,23.33
2018-03-11T11:09:37.709Z,23.34
2018-03-11T11:12:05.493Z,23.92
2018-03-11T11:14:33.419Z,23.64
2018-03-11T11:17:00.995Z,23.59
2018-03-11T11:19:28.576Z,23.81
2018-03-11T11:21:56.198Z,23.24
2018-03-11T11:24:23.767Z,23.21
2018-03-11T11:26:51.334Z,22.07
2018-03-11T11:29:19.120Z,22.02
2018-03-11T11:31:46.683Z,21.25
2018-03-11T11:34:14.432Z,21.59
2018-03-11T11:36:42.272Z,21.31
2018-03-11T11:39:09.830Z,20.48
2018-03-11T11:41:37.608Z,21.25
2018-03-11T11:44:05.238Z,23.05
2018-03-11T11:46:32.824Z,22.18
2018-03-11T11:49:00.453Z,21.95
2018-03-11T11:51:28.105Z,20.80
2018-03-11T11:53:55.898Z,20.80
2018-03-11T11:56:23.482Z,21.25
2018-03-11T11:58:51.090Z,20.69
2018-03-11T12:01:18.853Z,20.26
2018-03-11T12:03:46.411Z,19.27
2018-03-11T12:06:14.030Z,18.99
2018-03-11T12:08:41.584Z,18.65
2018-03-11T12:11:09.142Z,18.29
2018-03-11T12:13:36.941Z,20.27
2018-03-11T12:16:04.760Z,20.80
2018-03-11T12:18:32.316Z,20.74
2018-03-11T12:21:00.096Z,20.56
2018-03-11T12:23:27.914Z,19.88
2018-03-11T12:25:55.461Z,20.35
2018-03-11T12:28:23.116Z,20.44
2018-03-11T12:30:50.668Z,19.97
2018-03-11T12:33:18.237Z,20.29
2018-03-11T12:35:45.858Z,18.61
2018-03-11T12:38:13.417Z,19.19
2018-03-11T12:40:41.085Z,19.49
2018-03-11T12:43:08.858Z,20.40
2018-03-11T12:45:36.417Z,21.14
2018-03-11T12:48:03.978Z,22.89
2018-03-11T12:50:31.784Z,23.02
2018-03-11T12:52:59.341Z,24.28
2018-03-11T12:55:26.902Z,24.35
2018-03-11T12:57:54.527Z,24.58
2018-03-11T13:00:22.252Z,22.99
2018-03-11T13:02:49.969Z,22.07
2018-03-11T13:05:17.584Z,20.38
2018-03-11T13:07:45.161Z,19.71
2018-03-11T13:10:12.718Z,19.44
2018-03-11T13:12:40.331Z,18.73
2018-03-11T13:15:08.091Z,18.83
2018-03-11T13:17:35.656Z,18.78
2018-03-11T13:20:15.035Z,18.98
2018-03-11T13:22:42.590Z,19.10
2018-03-11T13:25:10.143Z,17.70
2018-03-11T13:27:37.828Z,18.60
2018-03-11T13:30:05.639Z,18.63
2018-03-11T13:32:45.022Z,18.61
2018-03-11T13:35:12.817Z,18.68
2018-03-11T13:37:40.505Z,18.98
2018-03-11T13:40:19.890Z,18.27
2018-03-11T13:42:47.451Z,17.59
2018-03-11T13:45:26.826Z,17.75
2018-03-11T13:47:54.459Z,17.66
2018-03-11T13:50:22.207Z,17.27
2018-03-11T13:55:55.290Z,17.04
2018-03-11T13:58:34.626Z,17.01
2018-03-11T14:01:02.187Z,16.36
2018-03-11T14:03:29.755Z,15.81
2018-03-11T14:05:57.373Z,16.02
2018-03-11T14:08:24.932Z,16.06
2018-03-11T14:10:52.496Z,17.07
2018-03-11T14:13:20.342Z,17.84
2018-03-11T14:15:48.162Z,18.09
2018-03-11T14:18:15.979Z,18.45
2018-03-11T14:20:43.809Z,19.01
2018-03-11T14:23:11.616Z,18.38
2018-03-11T14:25:39.433Z,18.66
2018-03-11T14:28:07.256Z,18.71
2018-03-11T14:30:34.882Z,18.54
2018-03-11T14:33:02.447Z,19.37
2018-03-11T14:35:30.081Z,19.25
2018-03-11T14:37:57.794Z,19.63
2018-03-11T14:40:25.350Z,19.26
2018-03-11T14:42:52.970Z,19.41
2018-03-11T14:45:20.559Z,18.96
2018-03-11T14:47:48.115Z,19.91
2018-03-11T14:50:15.727Z,20.60
2018-03-11T14:52:43.324Z,20.38
2018-03-11T14:55:10.888Z,20.72
2018-03-11T14:57:38.516Z,20.77
2018-03-11T15:00:06.142Z,22.57
2018-03-11T15:02:33.913Z,23.38
2018-03-11T15:05:01.512Z,24.02
2018-03-11T15:07:29.070Z,24.17
2018-03-11T15:09:56.837Z,24.88
2018-03-11T15:12:24.460Z,24.67
2018-03-11T15:14:52.025Z,24.62
2018-03-11T15:17:19.573Z,25.48
2018-03-11T15:19:47.199Z,26.76
2018-03-11T15:22:14.831Z,26.76
2018-03-11T15:24:42.394Z,27.24
2018-03-11T15:27:10.184Z,27.81
2018-03-11T15:29:37.738Z,28.25
2018-03-11T15:32:05.330Z,28.67
2018-03-11T15:34:32.944Z,29.16
2018-03-11T15:37:00.498Z,30.22
2018-03-11T15:39:28.057Z,31.23
2018-03-11T15:41:55.955Z,32.22
2018-03-11T15:44:23.542Z,32.49
2018-03-11T15:46:51.105Z,33.30
2018-03-11T15:49:18.731Z,33.73
2018-03-11T15:51:46.446Z,34.07
2018-03-11T15:54:14.021Z,34.93
2018-03-11T15:56:41.649Z,35.49
2018-03-11T15:59:09.397Z,35.79
2018-03-11T16:01:37.134Z,37.00
2018-03-11T16:04:04.787Z,37.47
2018-03-11T16:06:32.571Z,38.00
2018-03-11T16:09:00.390Z,38.58
2018-03-11T16:11:28.005Z,38.60
2018-03-11T16:13:55.797Z,39.76
2018-03-11T16:16:23.357Z,40.45
2018-03-11T16:18:51.163Z,40.77
2018-03-11T16:21:18.727Z,40.97
2018-03-11T16:23:46.501Z,40.67
2018-03-11T16:26:14.316Z,41.45
2018-03-11T16:28:41.886Z,41.63
2018-03-11T16:31:09.450Z,42.65
2018-03-11T16:33:37.150Z,42.77
2018-03-11T16:36:04.726Z,42.17
2018-03-11T16:38:32.287Z,41.85
2018-03-11T16:41:00.124Z,43.22
2018-03-11T16:43:27.686Z,42.93
2018-03-11T16:45:55.442Z,43.11
2018-03-11T16:48:23.063Z,43.10
2018-03-11T16:50:50.687Z,43.40
2018-03-11T16:53:18.430Z,43.82
2018-03-11T16:55:46.058Z,44.43
2018-03-11T16:58:13.851Z,44.55
2018-03-11T17:00:41.518Z,45.04
2018-03-11T17:03:09.168Z,44.74
2018-03-11T17:05:36.904Z,45.11
2018-03-11T17:08:04.504Z,44.87
2018-03-11T17:10:32.126Z,46.58
2018-03-11T17:12:59.702Z,45.76
2018-03-11T17:15:29.476Z,45.96
2018-03-11T17:17:57.305Z,46.64
2018-03-11T17:20:25.121Z,47.21
2018-03-11T17:22:52.841Z,47.61
2018-03-11T17:25:20.454Z,47.75
2018-03-11T17:27:48.038Z,48.64
2018-03-11T17:30:15.623Z,48.92
2018-03-11T17:32:43.411Z,48.66
2018-03-11T17:35:10.990Z,48.88
2018-03-11T17:37:38.564Z,49.06
2018-03-11T17:40:06.217Z,48.28
2018-03-11T17:42:33.796Z,48.86
2018-03-11T17:45:01.363Z,49.35
2018-03-11T17:47:28.986Z,49.57
2018-03-11T17:49:56.636Z,48.79
2018-03-11T17:52:24.234Z,50.37
2018-03-11T17:54:51.866Z,50.53
2018-03-11T17:57:19.481Z,51.41
2018-03-11T17:59:47.210Z,51.50
2018-03-11T18:02:15.026Z,51.57
2018-03-11T18:04:42.606Z,52.09
2018-03-11T18:07:10.191Z,51.72
2018-03-11T18:09:38.080Z,52.06
2018-03-11T18:12:05.654Z,52.26
2018-03-11T18:14:33.227Z,52.47
2018-03-11T18:17:00.862Z,52.21
2018-03-11T18:19:28.653Z,52.32
2018-03-11T18:21:56.242Z,52.60
2018-03-11T18:24:24.008Z,52.09
2018-03-11T18:26:51.586Z,52.75
2018-03-11T18:29:19.178Z,52.90
2018-03-11T18:31:46.836Z,53.23
2018-03-11T18:34:14.404Z,52.42
2018-03-11T18:36:42.178Z,52.69
2018-03-11T18:39:09.809Z,53.46
2018-03-11T18:41:37.374Z,53.61
2018-03-11T18:44:04.982Z,53.93
2018-03-11T18:46:32.605Z,54.56
2018-03-11T18:49:00.162Z,54.78
2018-03-11T18:51:27.776Z,53.98
2018-03-11T18:53:55.418Z,53.77
2018-03-11T18:56:23.225Z,54.80
2018-03-11T18:58:50.793Z,55.31
2018-03-11T19:01:18.685Z,55.34
2018-03-11T19:03:46.301Z,55.79
2018-03-11T19:06:14.094Z,56.28
2018-03-11T19:08:41.762Z,56.23
2018-03-11T19:11:09.336Z,56.78
2018-03-11T19:13:36.893Z,57.34
2018-03-11T19:16:04.721Z,56.87
2018-03-11T19:18:32.282Z,57.17
2018-03-11T19:20:59.842Z,57.44
2018-03-11T19:23:27.824Z,58.24
2018-03-11T19:25:55.641Z,58.41
2018-03-11T19:28:23.487Z,58.31
2018-03-11T19:30:51.215Z,58.52
2018-03-11T19:33:18.797Z,58.94
2018-03-11T19:35:46.380Z,59.17
2018-03-11T19:38:14.021Z,58.87
2018-03-11T19:40:41.848Z,58.64
2018-03-11T19:43:09.453Z,58.94
2018-03-11T19:45:37.086Z,59.04
2018-03-11T19:48:04.658Z,59.45
2018-03-11T19:50:32.388Z,59.38
2018-03-11T19:53:00.086Z,59.54
2018-03-11T19:55:27.821Z,59.79
2018-03-11T19:57:55.415Z,60.04
2018-03-11T20:00:23.358Z,60.48
2018-03-11T20:02:51.071Z,61.01
2018-03-11T20:05:18.831Z,61.14
2018-03-11T20:07:46.486Z,61.24
2018-03-11T20:10:14.062Z,61.63
2018-03-11T20:12:41.776Z,61.29
2018-03-11T20:15:09.422Z,60.65
2018-03-11T20:17:36.987Z,59.59
2018-03-11T20:20:04.766Z,60.17
2018-03-11T20:22:32.757Z,60.15
2018-03-11T20:25:00.577Z,60.58
2018-03-11T20:27:28.395Z,60.64
2018-03-11T20:29:56.254Z,59.17
2018-03-11T20:32:23.810Z,59.87
2018-03-11T20:34:51.511Z,61.26
2018-03-11T20:37:19.476Z,60.99
2018-03-11T20:39:47.287Z,57.69
2018-03-11T20:42:15.031Z,57.70
2018-03-11T20:44:42.653Z,58.70
2018-03-11T20:47:10.329Z,58.40
2018-03-11T20:49:37.904Z,58.56
2018-03-11T20:52:05.777Z,58.62
2018-03-11T20:54:33.345Z,57.62
2018-03-11T20:57:00.910Z,56.08
2018-03-11T20:59:28.537Z,56.84
2018-03-11T21:01:56.234Z,56.47
2018-03-11T21:04:23.968Z,56.50
2018-03-11T21:06:51.786Z,57.05
2018-03-11T21:09:19.604Z,57.30
2018-03-11T21:11:47.203Z,57.44
2018-03-11T21:14:14.932Z,56.84
2018-03-11T21:16:42.507Z,56.92
2018-03-11T21:19:10.260Z,57.20
2018-03-11T21:21:38.096Z,57.53
2018-03-11T21:24:05.914Z,56.81
2018-03-11T21:26:33.732Z,56.89
2018-03-11T21:29:01.361Z,57.68
2018-03-11T21:31:28.945Z,57.27
2018-03-11T21:33:56.764Z,57.36
2018-03-11T21:36:24.402Z,56.84
2018-03-11T21:38:51.992Z,56.07
2018-03-11T21:41:19.576Z,56.17
2018-03-11T21:43:47.359Z,56.48
2018-03-11T21:46:14.934Z,56.65
2018-03-11T21:48:42.506Z,56.44
2018-03-11T21:51:10.134Z,56.80
2018-03-11T21:53:38.040Z,56.95
2018-03-11T21:56:05.628Z,57.07
2018-03-11T21:58:33.247Z,56.92
2018-03-11T22:01:00.810Z,57.15
2018-03-11T22:03:28.374Z,57.24
2018-03-11T22:05:56.222Z,57.19
2018-03-11T22:08:24.039Z,57.39
2018-03-11T22:10:51.598Z,57.65
2018-03-11T22:13:19.214Z,57.75
2018-03-11T22:15:46.780Z,57.80
2018-03-11T22:18:14.361Z,58.01
2018-03-11T22:20:42.099Z,58.07
2018-03-11T22:23:09.849Z,58.41
2018-03-11T22:25:37.426Z,58.46
2018-03-11T22:28:05.285Z,58.65
2018-03-11T22:30:33.002Z,58.85
2018-03-11T22:33:00.634Z,59.10
2018-03-11T22:35:28.305Z,59.35
2018-03-11T22:37:55.881Z,59.50
2018-03-11T22:40:23.437Z,59.73
2018-03-11T22:42:51.068Z,59.69
2018-03-11T22:45:18.790Z,59.63
2018-03-11T22:47:46.406Z,59.44
2018-03-11T22:50:14.037Z,59.38
2018-03-11T22:52:41.868Z,59.33
2018-03-11T22:55:09.690Z,59.42
2018-03-11T22:57:37.389Z,59.31
2018-03-11T23:00:05.220Z,59.35
2018-03-11T23:02:32.778Z,59.89
2018-03-11T23:05:00.459Z,59.90
2018-03-11T23:07:28.011Z,59.92
2018-03-11T23:09:55.576Z,60.05
2018-03-11T23:12:23.241Z,60.54
2018-03-11T23:14:51.027Z,60.66
2018-03-11T23:17:18.847Z,61.71
2018-03-11T23:19:46.466Z,61.42
2018-03-11T23:22:14.037Z,61.20
2018-03-11T23:24:41.598Z,62.20
2018-03-11T23:27:09.420Z,62.84
2018-03-11T23:29:36.982Z,62.99
2018-03-11T23:32:04.554Z,62.79
2018-03-11T23:34:32.371Z,63.39
2018-03-11T23:36:59.939Z,63.59
2018-03-11T23:39:27.508Z,63.58
2018-03-11T23:41:55.271Z,63.65
2018-03-11T23:44:23.044Z,64.17
2018-03-11T23:46:50.613Z,63.47
2018-03-11T23:49:18.234Z,63.65
2018-03-11T23:51:45.804Z,63.74
2018-03-11T23:54:13.370Z,63.66
2018-03-11T23:56:41.197Z,64.38
2018-03-11T23:59:09.052Z,64.33
